createdAt,value
2018-10-05T00:00:31.512Z,4.23
2018-10-05T00:02:35.067Z,4.23
2018-10-05T00:04:38.734Z,4.23
2018-10-05T00:06:42.365Z,4.47
2018-10-05T00:08:46.088Z,4.13
2018-10-05T00:10:49.812Z,4.37
2018-10-05T00:12:53.429Z,4.03
2018-10-05T00:14:57.135Z,4.03
2018-10-05T00:17:00.771Z,5.03
2018-10-05T00:19:04.469Z,4.47
2018-10-05T00:21:08.171Z,4.47
2018-10-05T00:23:11.704Z,5.07
2018-10-05T00:25:15.319Z,5.20
2018-10-05T00:27:18.934Z,4.87
2018-10-05T00:29:22.486Z,4.30
2018-10-05T00:31:26.115Z,4.70
2018-10-05T00:33:29.787Z,4.40
2018-10-05T00:35:33.319Z,4.93
2018-10-05T00:37:36.838Z,4.60
2018-10-05T00:39:40.391Z,4.33
2018-10-05T00:41:43.964Z,4.67
2018-10-05T00:43:47.538Z,4.30
2018-10-05T00:45:51.131Z,4.40
2018-10-05T00:47:54.923Z,4.60
2018-10-05T00:49:58.432Z,4.90
2018-10-05T00:52:02.037Z,4.90
2018-10-05T00:54:05.620Z,4.63
2018-10-05T00:56:09.155Z,4.93
2018-10-05T00:58:12.836Z,5.00
2018-10-05T01:00:16.403Z,4.70
2018-10-05T01:02:19.937Z,4.50
2018-10-05T01:04:23.564Z,4.60
2018-10-05T01:06:27.106Z,4.50
2018-10-05T01:08:30.678Z,4.60
2018-10-05T01:10:34.186Z,4.67
2018-10-05T01:12:37.880Z,4.57
2018-10-05T01:14:41.508Z,5.07
2018-10-05T01:16:45.278Z,4.70
2018-10-05T01:18:49.102Z,4.40
2018-10-05T01:20:52.769Z,5.13
2018-10-05T01:22:56.375Z,4.63
2018-10-05T01:25:00.191Z,4.93
2018-10-05T01:27:03.648Z,4.70
2018-10-05T01:29:07.297Z,4.57
2018-10-05T01:31:10.988Z,5.10
2018-10-05T01:33:14.541Z,4.50
2018-10-05T01:35:19.152Z,4.70
2018-10-05T01:37:22.717Z,4.87
2018-10-05T01:39:26.288Z,5.67
2018-10-05T01:41:29.918Z,4.87
2018-10-05T01:43:33.484Z,5.20
2018-10-05T01:45:37.270Z,6.10
2018-10-05T01:47:40.767Z,7.80
2018-10-05T01:49:44.424Z,8.30
2018-10-05T01:51:47.975Z,8.80
2018-10-05T01:53:51.505Z,8.10
2018-10-05T01:55:55.064Z,8.87
2018-10-05T01:57:58.600Z,9.57
2018-10-05T02:00:02.221Z,8.93
2018-10-05T02:02:05.853Z,8.37
2018-10-05T02:04:09.563Z,7.93
2018-10-05T02:06:13.183Z,7.23
2018-10-05T02:08:16.865Z,6.70
2018-10-05T02:10:20.550Z,6.67
2018-10-05T02:12:24.102Z,7.17
2018-10-05T02:14:27.673Z,7.13
2018-10-05T02:16:31.286Z,6.77
2018-10-05T02:18:34.893Z,6.43
2018-10-05T02:20:38.426Z,6.07
2018-10-05T02:22:42.008Z,6.53
2018-10-05T02:24:45.608Z,6.37
2018-10-05T02:26:49.161Z,6.93
2018-10-05T02:28:52.913Z,6.20
2018-10-05T02:30:56.500Z,6.17
2018-10-05T02:33:00.363Z,6.00
2018-10-05T02:35:04.592Z,6.53
2018-10-05T02:37:08.182Z,5.43
2018-10-05T02:39:13.159Z,5.93
2018-10-05T02:41:16.704Z,6.03
2018-10-05T02:43:20.233Z,5.83
2018-10-05T02:45:23.836Z,5.87
2018-10-05T02:47:27.440Z,5.80
2018-10-05T02:49:30.953Z,5.80
2018-10-05T02:51:34.529Z,5.57
2018-10-05T02:53:38.046Z,5.80
2018-10-05T02:55:41.570Z,5.23
2018-10-05T02:57:45.246Z,5.20
2018-10-05T02:59:48.999Z,5.17
2018-10-05T03:02:03.964Z,5.03
2018-10-05T03:04:07.459Z,5.27
2018-10-05T03:06:11.084Z,5.43
2018-10-05T03:08:14.757Z,5.30
2018-10-05T03:10:18.791Z,5.40
2018-10-05T03:12:22.344Z,5.40
2018-10-05T03:14:26.100Z,5.17
2018-10-05T03:16:29.675Z,5.30
2018-10-05T03:18:33.426Z,4.80
2018-10-05T03:20:37.114Z,5.17
2018-10-05T03:22:40.675Z,4.87
2018-10-05T03:24:44.212Z,5.27
2018-10-05T03:26:47.716Z,5.07
2018-10-05T03:28:51.205Z,5.10
2018-10-05T03:30:54.737Z,5.10
2018-10-05T03:32:58.432Z,4.80
2018-10-05T03:35:02.343Z,4.70
2018-10-05T03:37:06.283Z,5.53
2018-10-05T03:39:09.825Z,6.47
2018-10-05T03:41:19.941Z,7.67
2018-10-05T03:43:23.963Z,6.70
2018-10-05T03:45:27.473Z,6.40
2018-10-05T03:47:31.148Z,6.47
2018-10-05T03:49:34.664Z,6.40
2018-10-05T03:51:38.233Z,10.10
2018-10-05T03:53:41.859Z,7.77
2018-10-05T03:55:45.367Z,7.50
2018-10-05T03:57:48.884Z,7.60
2018-10-05T03:59:52.455Z,6.80
2018-10-05T04:01:56.252Z,7.80
2018-10-05T04:03:59.895Z,7.90
2018-10-05T04:06:03.433Z,7.17
2018-10-05T04:08:06.947Z,7.60
2018-10-05T04:10:10.473Z,6.50
2018-10-05T04:12:13.966Z,6.00
2018-10-05T04:14:17.804Z,5.23
2018-10-05T04:16:21.333Z,6.03
2018-10-05T04:18:24.912Z,6.00
2018-10-05T04:20:28.487Z,6.57
2018-10-05T04:22:32.111Z,6.67
2018-10-05T04:24:35.904Z,6.77
2018-10-05T04:26:39.557Z,6.43
2018-10-05T04:28:43.059Z,7.10
2018-10-05T04:30:46.576Z,7.30
2018-10-05T04:32:50.087Z,7.37
2018-10-05T04:34:53.617Z,8.73
2018-10-05T04:36:57.131Z,9.13
2018-10-05T04:39:00.677Z,9.90
2018-10-05T04:41:04.209Z,9.27
2018-10-05T04:43:07.764Z,8.70
2018-10-05T04:45:11.281Z,8.07
2018-10-05T04:47:14.799Z,8.20
2018-10-05T04:49:18.332Z,7.17
2018-10-05T04:51:21.940Z,6.30
2018-10-05T04:53:25.797Z,6.10
2018-10-05T04:55:29.305Z,6.73
2018-10-05T04:57:35.784Z,6.77
2018-10-05T04:59:39.289Z,6.00
2018-10-05T05:01:42.852Z,6.40
2018-10-05T05:03:46.452Z,5.30
2018-10-05T05:05:49.939Z,6.87
2018-10-05T05:07:53.800Z,6.07
2018-10-05T05:09:57.319Z,6.07
2018-10-05T05:12:00.982Z,5.70
2018-10-05T05:14:04.514Z,5.37
2018-10-05T05:16:08.082Z,5.80
2018-10-05T05:18:11.620Z,5.80
2018-10-05T05:20:15.247Z,6.33
2018-10-05T05:22:18.772Z,6.10
2018-10-05T05:24:22.688Z,6.70
2018-10-05T05:26:26.485Z,7.17
2018-10-05T05:28:29.978Z,6.97
2018-10-05T05:30:33.568Z,6.13
2018-10-05T05:32:37.101Z,6.10
2018-10-05T05:34:40.614Z,6.40
2018-10-05T05:36:44.228Z,6.00
2018-10-05T05:38:47.743Z,5.63
2018-10-05T05:40:51.396Z,5.97
2018-10-05T05:42:54.917Z,5.83
2018-10-05T05:44:58.435Z,6.37
2018-10-05T05:47:02.119Z,6.07
2018-10-05T05:49:05.700Z,6.13
2018-10-05T05:51:09.251Z,5.33
2018-10-05T05:53:12.756Z,5.53
2018-10-05T05:55:16.406Z,6.17
2018-10-05T05:57:19.944Z,6.13
2018-10-05T05:59:23.466Z,6.53
2018-10-05T06:01:27.307Z,6.00
2018-10-05T06:03:30.903Z,6.60
2018-10-05T06:05:34.444Z,7.13
2018-10-05T06:07:37.956Z,6.63
2018-10-05T06:09:41.589Z,7.50
2018-10-05T06:11:45.232Z,7.77
2018-10-05T06:13:48.931Z,6.97
2018-10-05T06:15:52.510Z,7.50
2018-10-05T06:17:56.045Z,6.90
2018-10-05T06:19:59.553Z,7.53
2018-10-05T06:22:03.189Z,7.63
2018-10-05T06:24:06.749Z,8.00
2018-10-05T06:26:10.368Z,9.00
2018-10-05T06:28:13.866Z,7.67
2018-10-05T06:30:17.608Z,8.47
2018-10-05T06:32:21.315Z,7.90
2018-10-05T06:34:24.975Z,7.70
2018-10-05T06:36:28.571Z,7.90
2018-10-05T06:38:32.208Z,9.00
2018-10-05T06:40:35.898Z,8.30
2018-10-05T06:42:39.611Z,7.43
2018-10-05T06:44:43.156Z,7.20
2018-10-05T06:46:46.761Z,7.87
2018-10-05T06:48:50.261Z,8.17
2018-10-05T06:50:53.888Z,8.13
2018-10-05T06:52:57.412Z,7.90
2018-10-05T06:55:00.916Z,7.93
2018-10-05T06:57:04.520Z,8.47
2018-10-05T06:59:08.513Z,9.10
2018-10-05T07:01:12.012Z,8.20
2018-10-05T07:03:15.547Z,7.23
2018-10-05T07:05:19.029Z,8.27
2018-10-05T07:07:22.728Z,7.77
2018-10-05T07:09:26.393Z,8.20
2018-10-05T07:11:29.955Z,8.50
2018-10-05T07:13:33.644Z,9.37
2018-10-05T07:15:37.208Z,9.50
2018-10-05T07:17:40.800Z,8.60
2018-10-05T07:19:44.488Z,9.63
2018-10-05T07:21:48.096Z,10.53
2018-10-05T07:23:51.684Z,9.97
2018-10-05T07:25:55.187Z,9.57
2018-10-05T07:27:58.696Z,9.87
2018-10-05T07:30:02.270Z,10.07
2018-10-05T07:32:05.873Z,9.17
2018-10-05T07:34:09.616Z,10.23
2018-10-05T07:36:13.224Z,9.80
2018-10-05T07:38:16.982Z,10.83
2018-10-05T07:40:20.506Z,11.97
2018-10-05T07:42:24.032Z,11.27
2018-10-05T07:44:27.656Z,11.20
2018-10-05T07:46:31.193Z,11.27
2018-10-05T07:48:34.760Z,11.03
2018-10-05T07:50:38.411Z,10.60
2018-10-05T07:52:42.177Z,10.70
2018-10-05T07:54:45.687Z,11.03
2018-10-05T07:56:49.288Z,11.37
2018-10-05T07:58:52.933Z,11.40
2018-10-05T08:00:56.560Z,11.13
2018-10-05T08:03:00.251Z,11.97
2018-10-05T08:05:03.770Z,11.37
2018-10-05T08:07:07.321Z,11.77
2018-10-05T08:09:11.065Z,12.33
2018-10-05T08:11:14.628Z,12.87
2018-10-05T08:13:18.133Z,13.53
2018-10-05T08:15:21.735Z,13.13
2018-10-05T08:17:25.264Z,13.93
2018-10-05T08:19:28.796Z,14.93
2018-10-05T08:21:32.390Z,16.13
2018-10-05T08:23:36.090Z,14.53
2018-10-05T08:25:39.650Z,15.43
2018-10-05T08:27:43.202Z,15.07
2018-10-05T08:29:46.873Z,15.23
2018-10-05T08:31:50.463Z,14.63
2018-10-05T08:33:54.108Z,14.57
2018-10-05T08:35:57.670Z,15.40
2018-10-05T08:38:01.256Z,14.80
2018-10-05T08:40:05.240Z,14.67
2018-10-05T08:42:08.799Z,14.50
2018-10-05T08:44:12.367Z,16.00
2018-10-05T08:46:15.993Z,14.70
2018-10-05T08:48:19.541Z,15.80
2018-10-05T08:50:23.095Z,15.93
2018-10-05T08:52:26.791Z,15.80
2018-10-05T08:54:30.302Z,16.30
2018-10-05T08:56:33.879Z,17.27
2018-10-05T08:58:37.510Z,19.10
2018-10-05T09:00:41.060Z,19.40
2018-10-05T09:02:44.583Z,19.50
2018-10-05T09:04:48.126Z,19.73
2018-10-05T09:06:51.772Z,18.60
2018-10-05T09:08:55.291Z,19.70
2018-10-05T09:10:58.832Z,19.10
2018-10-05T09:13:02.560Z,20.50
2018-10-05T09:15:06.133Z,20.67
2018-10-05T09:17:09.642Z,19.90
2018-10-05T09:19:13.412Z,21.13
2018-10-05T09:21:16.935Z,19.07
2018-10-05T09:23:20.567Z,21.77
2018-10-05T09:25:24.097Z,20.60
2018-10-05T09:27:27.811Z,19.40
2018-10-05T09:29:31.435Z,18.67
2018-10-05T09:31:34.996Z,18.03
2018-10-05T09:33:38.625Z,19.87
2018-10-05T09:35:42.263Z,19.97
2018-10-05T09:37:45.898Z,19.10
2018-10-05T09:39:49.519Z,20.73
2018-10-05T09:41:53.310Z,20.50
2018-10-05T09:43:57.096Z,18.83
2018-10-05T09:46:00.895Z,21.23
2018-10-05T09:48:04.700Z,20.60
2018-10-05T09:50:08.289Z,19.27
2018-10-05T09:52:11.872Z,20.73
2018-10-05T09:54:15.819Z,20.90
2018-10-05T09:56:19.365Z,20.53
2018-10-05T09:58:23.083Z,21.87
2018-10-05T10:00:32.102Z,22.37
2018-10-05T10:02:41.227Z,20.53
2018-10-05T10:04:44.760Z,19.73
2018-10-05T10:06:48.424Z,20.80
2018-10-05T10:08:51.935Z,20.00
2018-10-05T10:10:55.713Z,20.90
2018-10-05T10:12:59.234Z,20.80
2018-10-05T10:15:03.051Z,19.80
2018-10-05T10:17:06.692Z,19.67
2018-10-05T10:19:10.324Z,20.27
2018-10-05T10:21:13.867Z,19.13
2018-10-05T10:23:17.380Z,19.53
2018-10-05T10:25:20.943Z,18.80
2018-10-05T10:27:24.471Z,19.50
2018-10-05T10:29:28.092Z,19.43
2018-10-05T10:31:38.099Z,18.57
2018-10-05T10:33:41.675Z,19.37
2018-10-05T10:35:45.261Z,18.63
2018-10-05T10:37:48.874Z,19.27
2018-10-05T10:39:52.565Z,18.30
2018-10-05T10:41:56.064Z,18.60
2018-10-05T10:43:59.632Z,18.30
2018-10-05T10:46:03.243Z,19.63
2018-10-05T10:48:07.188Z,18.07
2018-10-05T10:50:10.660Z,18.10
2018-10-05T10:52:14.169Z,19.13
2018-10-05T10:54:24.216Z,18.30
2018-10-05T10:56:27.717Z,18.87
2018-10-05T10:58:31.414Z,18.30
2018-10-05T11:00:35.057Z,18.50
2018-10-05T11:02:38.596Z,19.17
2018-10-05T11:04:42.190Z,18.73
2018-10-05T11:06:45.832Z,17.57
2018-10-05T11:08:49.502Z,16.90
2018-10-05T11:10:53.048Z,17.97
2018-10-05T11:12:56.743Z,18.80
2018-10-05T11:15:00.323Z,16.90
2018-10-05T11:17:03.999Z,18.63
2018-10-05T11:19:07.540Z,19.13
2018-10-05T11:21:11.060Z,19.63
2018-10-05T11:23:14.763Z,18.97
2018-10-05T11:25:18.129Z,18.53
2018-10-05T11:27:21.711Z,19.13
2018-10-05T11:29:25.208Z,18.73
2018-10-05T11:31:29.095Z,18.20
2018-10-05T11:33:32.611Z,17.23
2018-10-05T11:35:36.099Z,18.13
2018-10-05T11:37:39.627Z,19.27
2018-10-05T11:39:43.131Z,17.67
2018-10-05T11:41:46.803Z,19.13
2018-10-05T11:43:50.675Z,18.67
2018-10-05T11:45:54.231Z,18.63
2018-10-05T11:47:57.776Z,17.80
2018-10-05T11:50:01.446Z,18.07
2018-10-05T11:52:05.155Z,19.00
2018-10-05T11:54:08.728Z,18.67
2018-10-05T11:56:12.323Z,17.83
2018-10-05T11:58:15.906Z,17.87
2018-10-05T12:00:19.531Z,18.23
2018-10-05T12:02:23.186Z,18.10
2018-10-05T12:04:26.745Z,17.77
2018-10-05T12:06:30.279Z,18.07
2018-10-05T12:08:33.927Z,17.63
2018-10-05T12:10:37.443Z,17.80
2018-10-05T12:12:41.044Z,15.93
2018-10-05T12:14:44.800Z,17.40
2018-10-05T12:16:48.361Z,16.37
2018-10-05T12:18:51.949Z,17.50
2018-10-05T12:20:55.496Z,17.13
2018-10-05T12:22:59.018Z,16.20
2018-10-05T12:25:02.577Z,18.83
2018-10-05T12:27:06.141Z,17.70
2018-10-05T12:29:09.802Z,18.63
2018-10-05T12:31:13.353Z,18.53
2018-10-05T12:33:17.007Z,17.77
2018-10-05T12:35:20.547Z,17.70
2018-10-05T12:37:24.313Z,19.27
2018-10-05T12:39:27.937Z,17.60
2018-10-05T12:41:31.524Z,17.23
2018-10-05T12:43:35.171Z,17.83
2018-10-05T12:45:38.901Z,16.73
2018-10-05T12:47:42.447Z,16.87
2018-10-05T12:49:46.000Z,17.13
2018-10-05T12:51:49.505Z,17.33
2018-10-05T12:53:53.060Z,17.00
2018-10-05T12:55:56.593Z,18.07
2018-10-05T12:58:00.152Z,17.80
2018-10-05T13:00:03.795Z,16.60
2018-10-05T13:02:07.458Z,16.27
2018-10-05T13:04:11.167Z,18.70
2018-10-05T13:06:14.709Z,17.53
2018-10-05T13:08:18.209Z,16.37
2018-10-05T13:10:21.933Z,16.20
2018-10-05T13:12:25.532Z,17.07
2018-10-05T13:14:29.263Z,18.07
2018-10-05T13:16:33.194Z,16.93
2018-10-05T13:18:37.172Z,17.37
2018-10-05T13:20:40.850Z,17.23
2018-10-05T13:22:44.451Z,17.60
2018-10-05T13:24:48.051Z,18.10
2018-10-05T13:26:51.797Z,16.53
2018-10-05T13:28:55.329Z,15.37
2018-10-05T13:30:58.957Z,15.77
2018-10-05T13:33:02.625Z,15.50
2018-10-05T13:35:06.402Z,14.37
2018-10-05T13:37:09.964Z,15.50
2018-10-05T13:39:13.482Z,16.47
2018-10-05T13:41:17.034Z,17.33
2018-10-05T13:43:20.588Z,17.13
2018-10-05T13:45:24.103Z,16.30
2018-10-05T13:47:27.630Z,16.83
2018-10-05T13:49:31.222Z,16.23
2018-10-05T13:51:36.053Z,16.33
2018-10-05T13:53:39.648Z,16.90
2018-10-05T13:55:43.221Z,15.97
2018-10-05T13:57:46.956Z,15.10
2018-10-05T13:59:50.470Z,14.80
2018-10-05T14:01:54.108Z,15.33
2018-10-05T14:03:57.743Z,14.77
2018-10-05T14:06:01.522Z,14.40
2018-10-05T14:08:05.122Z,14.20
2018-10-05T14:10:08.683Z,13.83
2018-10-05T14:12:12.312Z,14.57
2018-10-05T14:14:16.092Z,13.20
2018-10-05T14:16:19.729Z,14.13
2018-10-05T14:18:23.261Z,12.47
2018-10-05T14:20:26.905Z,13.57
2018-10-05T14:22:30.372Z,13.60
2018-10-05T14:24:33.892Z,12.87
2018-10-05T14:26:37.433Z,12.63
2018-10-05T14:28:40.939Z,13.00
2018-10-05T14:30:44.757Z,13.27
2018-10-05T14:32:48.460Z,13.97
2018-10-05T14:34:52.069Z,12.63
2018-10-05T14:36:55.669Z,12.07
2018-10-05T14:38:59.222Z,13.03
2018-10-05T14:41:02.736Z,12.47
2018-10-05T14:43:06.311Z,12.07
2018-10-05T14:45:09.929Z,11.60
2018-10-05T14:47:13.483Z,10.90
2018-10-05T14:49:17.134Z,11.57
2018-10-05T14:51:20.681Z,11.53
2018-10-05T14:53:24.315Z,11.63
2018-10-05T14:55:28.002Z,11.47
2018-10-05T14:57:31.565Z,11.60
2018-10-05T14:59:35.043Z,11.13
2018-10-05T15:01:38.565Z,11.53
2018-10-05T15:03:42.315Z,9.67
2018-10-05T15:05:45.869Z,9.63
2018-10-05T15:07:49.359Z,11.43
2018-10-05T15:09:52.956Z,11.00
2018-10-05T15:11:56.573Z,11.03
2018-10-05T15:14:00.167Z,11.13
2018-10-05T15:16:03.993Z,10.37
2018-10-05T15:18:07.671Z,11.03
2018-10-05T15:20:11.255Z,10.77
2018-10-05T15:22:14.828Z,11.60
2018-10-05T15:24:18.351Z,11.67
2018-10-05T15:26:21.832Z,11.10
2018-10-05T15:28:25.357Z,10.30
2018-10-05T15:30:28.954Z,10.40
2018-10-05T15:32:32.710Z,9.67
2018-10-05T15:34:36.502Z,11.53
2018-10-05T15:36:40.172Z,10.23
2018-10-05T15:38:43.717Z,11.13
2018-10-05T15:40:47.171Z,10.47
2018-10-05T15:42:53.767Z,10.23
2018-10-05T15:44:57.857Z,10.67
2018-10-05T15:47:05.047Z,10.93
2018-10-05T15:49:08.697Z,11.03
2018-10-05T15:51:12.191Z,11.20
2018-10-05T15:53:15.721Z,10.40
2018-10-05T15:55:19.342Z,10.33
2018-10-05T15:57:23.110Z,9.97
2018-10-05T15:59:27.225Z,10.20
2018-10-05T16:01:30.809Z,9.77
2018-10-05T16:03:34.482Z,10.30
2018-10-05T16:05:38.043Z,9.13
2018-10-05T16:07:41.741Z,9.90
2018-10-05T16:09:45.362Z,9.70
2018-10-05T16:11:48.994Z,9.90
2018-10-05T16:13:52.543Z,9.80
2018-10-05T16:15:56.136Z,9.80
2018-10-05T16:17:59.696Z,10.57
2018-10-05T16:20:03.512Z,10.87
2018-10-05T16:22:07.158Z,10.43
2018-10-05T16:24:14.441Z,8.67
2018-10-05T16:26:18.002Z,9.07
2018-10-05T16:28:21.506Z,9.70
2018-10-05T16:30:25.057Z,9.60
2018-10-05T16:32:28.656Z,12.47
2018-10-05T16:34:32.627Z,8.60
2018-10-05T16:36:36.169Z,8.10
2018-10-05T16:38:39.872Z,8.00
2018-10-05T16:40:43.378Z,8.17
2018-10-05T16:42:47.120Z,11.37
2018-10-05T16:44:50.633Z,12.90
2018-10-05T16:46:54.440Z,11.60
2018-10-05T16:48:57.992Z,11.97
2018-10-05T16:51:01.572Z,11.50
2018-10-05T16:53:05.124Z,11.97
2018-10-05T16:55:08.682Z,9.10
2018-10-05T16:57:12.243Z,8.50
2018-10-05T16:59:15.749Z,8.60
2018-10-05T17:01:19.343Z,8.20
2018-10-05T17:03:22.999Z,8.53
2018-10-05T17:05:26.537Z,8.67
2018-10-05T17:07:30.159Z,8.83
2018-10-05T17:09:33.718Z,10.13
2018-10-05T17:11:38.682Z,10.23
2018-10-05T17:13:42.307Z,9.70
2018-10-05T17:15:45.896Z,8.13
2018-10-05T17:17:49.460Z,12.97
2018-10-05T17:19:53.014Z,13.87
2018-10-05T17:21:56.541Z,13.50
2018-10-05T17:24:00.091Z,14.60
2018-10-05T17:26:03.688Z,11.70
2018-10-05T17:28:07.356Z,12.00
2018-10-05T17:30:10.952Z,11.03
2018-10-05T17:32:14.522Z,11.00
2018-10-05T17:34:18.111Z,10.87
2018-10-05T17:36:21.859Z,10.40
2018-10-05T17:38:25.439Z,9.87
2018-10-05T17:40:28.967Z,10.33
2018-10-05T17:42:32.570Z,9.43
2018-10-05T17:44:36.124Z,12.03
2018-10-05T17:46:39.655Z,12.17
2018-10-05T17:48:43.302Z,11.77
2018-10-05T17:50:47.017Z,13.27
2018-10-05T17:52:50.915Z,13.70
2018-10-05T17:54:54.556Z,14.60
2018-10-05T17:56:58.115Z,12.50
2018-10-05T17:59:01.859Z,13.03
2018-10-05T18:01:05.549Z,13.50
2018-10-05T18:03:09.105Z,14.37
2018-10-05T18:05:12.797Z,14.17
2018-10-05T18:07:16.408Z,14.77
2018-10-05T18:09:19.951Z,12.03
2018-10-05T18:11:23.621Z,8.47
2018-10-05T18:13:27.273Z,6.03
2018-10-05T18:15:31.008Z,6.30
2018-10-05T18:17:34.659Z,6.00
2018-10-05T18:19:38.318Z,5.93
2018-10-05T18:21:42.055Z,6.20
2018-10-05T18:23:45.612Z,6.70
2018-10-05T18:25:49.332Z,6.57
2018-10-05T18:27:52.947Z,7.40
2018-10-05T18:29:56.487Z,7.00
2018-10-05T18:32:00.132Z,13.73
2018-10-05T18:36:14.481Z,8.40
2018-10-05T18:38:18.095Z,7.57
2018-10-05T18:40:21.648Z,7.27
2018-10-05T18:42:25.373Z,7.27
2018-10-05T18:44:28.926Z,6.63
2018-10-05T18:46:32.488Z,6.73
2018-10-05T18:48:36.087Z,7.20
2018-10-05T18:50:39.684Z,7.07
2018-10-05T18:52:43.399Z,7.10
2018-10-05T18:54:46.937Z,7.07
2018-10-05T18:57:01.818Z,7.90
2018-10-05T18:59:05.567Z,7.70
2018-10-05T19:01:09.210Z,8.97
2018-10-05T19:03:12.809Z,7.77
2018-10-05T19:05:16.389Z,7.70
2018-10-05T19:07:20.130Z,8.60
2018-10-05T19:09:23.652Z,7.90
2018-10-05T19:11:27.309Z,7.43
2018-10-05T19:13:30.962Z,7.10
2018-10-05T19:15:34.491Z,7.37
2018-10-05T19:17:38.118Z,7.47
2018-10-05T19:19:41.726Z,7.60
2018-10-05T19:21:45.272Z,7.17
2018-10-05T19:23:48.835Z,7.37
2018-10-05T19:25:52.472Z,7.43
2018-10-05T19:27:56.035Z,7.77
2018-10-05T19:29:59.784Z,7.43
2018-10-05T19:32:03.291Z,7.13
2018-10-05T19:34:06.871Z,6.60
2018-10-05T19:36:10.406Z,7.30
2018-10-05T19:38:13.940Z,8.27
2018-10-05T19:40:17.496Z,7.20
2018-10-05T19:42:21.193Z,6.67
2018-10-05T19:44:24.753Z,7.10
2018-10-05T19:46:28.315Z,7.20
2018-10-05T19:48:31.958Z,7.20
2018-10-05T19:50:35.657Z,6.77
2018-10-05T19:52:39.264Z,7.23
2018-10-05T19:54:42.779Z,7.80
2018-10-05T19:56:46.366Z,7.20
2018-10-05T19:58:49.948Z,7.10
2018-10-05T20:00:53.512Z,8.07
2018-10-05T20:02:57.063Z,7.83
2018-10-05T20:05:00.659Z,9.37
2018-10-05T20:07:04.336Z,9.03
2018-10-05T20:09:08.533Z,8.43
2018-10-05T20:11:12.091Z,8.83
2018-10-05T20:13:15.781Z,10.20
2018-10-05T20:15:19.380Z,9.30
2018-10-05T20:17:23.063Z,8.73
2018-10-05T20:19:26.864Z,9.47
2018-10-05T20:21:30.418Z,8.90
2018-10-05T20:23:33.954Z,8.53
2018-10-05T20:25:37.540Z,7.50
2018-10-05T20:27:41.095Z,8.23
2018-10-05T20:29:44.784Z,8.47
2018-10-05T20:31:48.353Z,8.03
2018-10-05T20:33:51.870Z,8.07
2018-10-05T20:35:55.664Z,8.77
2018-10-05T20:37:59.080Z,8.10
2018-10-05T20:40:02.609Z,8.23
2018-10-05T20:42:06.180Z,9.57
2018-10-05T20:44:09.840Z,8.27
2018-10-05T20:46:13.588Z,9.20
2018-10-05T20:48:17.197Z,8.57
2018-10-05T20:50:20.800Z,8.87
2018-10-05T20:52:24.492Z,9.07
2018-10-05T20:54:28.022Z,9.03
2018-10-05T20:56:31.676Z,7.90
2018-10-05T20:58:35.288Z,8.07
2018-10-05T21:00:38.938Z,7.90
2018-10-05T21:02:42.440Z,7.17
2018-10-05T21:04:46.005Z,7.67
2018-10-05T21:06:49.659Z,7.43
2018-10-05T21:08:53.176Z,7.83
2018-10-05T21:10:56.757Z,7.40
2018-10-05T21:13:00.267Z,7.23
2018-10-05T21:15:04.112Z,7.37
2018-10-05T21:17:07.639Z,7.17
2018-10-05T21:19:11.192Z,7.20
2018-10-05T21:21:14.710Z,8.23
2018-10-05T21:23:18.291Z,8.43
2018-10-05T21:25:21.830Z,7.30
2018-10-05T21:27:25.497Z,8.03
2018-10-05T21:29:29.022Z,7.60
2018-10-05T21:31:32.530Z,7.43
2018-10-05T21:33:36.236Z,6.97
2018-10-05T21:35:39.784Z,7.00
2018-10-05T21:37:43.351Z,7.23
2018-10-05T21:39:47.035Z,7.13
2018-10-05T21:41:50.703Z,7.07
2018-10-05T21:43:54.251Z,7.27
2018-10-05T21:45:57.794Z,6.97
2018-10-05T21:48:01.349Z,6.80
2018-10-05T21:50:05.215Z,7.90
2018-10-05T21:52:08.876Z,8.87
2018-10-05T21:54:12.492Z,8.63
2018-10-05T21:56:16.088Z,9.23
2018-10-05T21:58:20.140Z,8.80
2018-10-05T22:00:23.772Z,9.03
2018-10-05T22:02:31.522Z,8.20
2018-10-05T22:04:35.351Z,8.20
2018-10-05T22:06:38.855Z,8.50
2018-10-05T22:08:42.519Z,9.03
2018-10-05T22:10:46.091Z,8.27
2018-10-05T22:12:49.605Z,8.00
2018-10-05T22:14:53.155Z,7.43
2018-10-05T22:16:56.841Z,8.37
2018-10-05T22:19:00.360Z,8.70
2018-10-05T22:21:04.068Z,9.47
2018-10-05T22:23:07.593Z,8.00
2018-10-05T22:25:11.123Z,7.90
2018-10-05T22:27:14.691Z,8.20
2018-10-05T22:29:18.382Z,8.53
2018-10-05T22:31:21.898Z,9.17
2018-10-05T22:33:25.449Z,10.30
2018-10-05T22:35:29.292Z,10.97
2018-10-05T22:37:32.847Z,8.40
2018-10-05T22:39:36.438Z,8.10
2018-10-05T22:41:39.923Z,7.60
2018-10-05T22:43:43.447Z,8.60
2018-10-05T22:45:47.114Z,7.60
2018-10-05T22:47:50.614Z,7.80
2018-10-05T22:49:54.681Z,7.70
2018-10-05T22:51:58.196Z,7.83
2018-10-05T22:54:01.747Z,7.90
2018-10-05T22:56:05.520Z,8.73
2018-10-05T22:58:09.035Z,8.73
2018-10-05T23:02:19.391Z,8.80
2018-10-05T23:04:22.993Z,8.57
2018-10-05T23:06:26.530Z,8.87
2018-10-05T23:08:30.015Z,8.87
2018-10-05T23:10:33.647Z,8.53
2018-10-05T23:12:37.280Z,8.13
2018-10-05T23:14:40.896Z,7.87
2018-10-05T23:16:44.498Z,7.30
2018-10-05T23:18:48.142Z,7.80
2018-10-05T23:20:51.672Z,8.00
2018-10-05T23:22:55.326Z,8.00
2018-10-05T23:24:58.813Z,7.40
2018-10-05T23:27:02.308Z,7.90
2018-10-05T23:29:06.081Z,7.50
2018-10-05T23:31:09.552Z,7.60
2018-10-05T23:33:13.188Z,7.97
2018-10-05T23:35:16.704Z,7.87
2018-10-05T23:37:20.299Z,7.90
2018-10-05T23:39:23.850Z,7.60
2018-10-05T23:41:27.402Z,7.17
2018-10-05T23:43:37.546Z,7.97
2018-10-05T23:45:41.043Z,6.93
2018-10-05T23:47:44.568Z,7.40
2018-10-05T23:49:48.136Z,6.97
2018-10-05T23:51:51.668Z,7.10
2018-10-05T23:53:55.219Z,7.43
2018-10-05T23:55:58.748Z,6.33
2018-10-05T23:58:02.284Z,6.67
